sensor_id;sensor_type;location;lat;lon;timestamp;P1;durP1;ratioP1;P2;durP2;ratioP2
56718;SDS011;42597;40.636;0.278;2024-02-21T00:01:36;4.82;;;2.50;;
56718;SDS011;42597;40.636;0.278;2024-02-21T00:04:02;6.03;;;2.63;;
56718;SDS011;42597;40.636;0.278;2024-02-21T00:06:27;4.40;;;2.03;;
56718;SDS011;42597;40.636;0.278;2024-02-21T00:08:53;6.50;;;2.55;;
56718;SDS011;42597;40.636;0.278;2024-02-21T00:11:18;6.75;;;2.47;;
56718;SDS011;42597;40.636;0.278;2024-02-21T00:13:44;5.47;;;2.65;;
56718;SDS011;42597;40.636;0.278;2024-02-21T00:16:09;3.13;;;1.88;;
56718;SDS011;42597;40.636;0.278;2024-02-21T00:18:36;4.72;;;2.50;;
56718;SDS011;42597;40.636;0.278;2024-02-21T00:21:01;5.70;;;1.70;;
56718;SDS011;42597;40.636;0.278;2024-02-21T00:23:28;8.35;;;2.85;;
56718;SDS011;42597;40.636;0.278;2024-02-21T00:25:53;5.32;;;2.38;;
56718;SDS011;42597;40.636;0.278;2024-02-21T00:28:19;6.95;;;2.63;;
56718;SDS011;42597;40.636;0.278;2024-02-21T00:30:45;4.75;;;2.50;;
56718;SDS011;42597;40.636;0.278;2024-02-21T00:33:13;4.75;;;2.08;;
56718;SDS011;42597;40.636;0.278;2024-02-21T00:35:39;7.50;;;2.63;;
56718;SDS011;42597;40.636;0.278;2024-02-21T00:38:04;5.68;;;2.63;;
56718;SDS011;42597;40.636;0.278;2024-02-21T00:40:30;4.90;;;2.00;;
56718;SDS011;42597;40.636;0.278;2024-02-21T00:42:56;4.05;;;2.45;;
56718;SDS011;42597;40.636;0.278;2024-02-21T00:45:21;5.32;;;2.65;;
56718;SDS011;42597;40.636;0.278;2024-02-21T00:47:47;5.63;;;2.60;;
56718;SDS011;42597;40.636;0.278;2024-02-21T00:50:13;4.18;;;2.25;;
56718;SDS011;42597;40.636;0.278;2024-02-21T00:52:38;4.65;;;2.33;;
56718;SDS011;42597;40.636;0.278;2024-02-21T00:55:04;5.55;;;2.60;;
56718;SDS011;42597;40.636;0.278;2024-02-21T00:57:30;5.25;;;2.08;;
56718;SDS011;42597;40.636;0.278;2024-02-21T00:59:57;4.50;;;2.53;;
56718;SDS011;42597;40.636;0.278;2024-02-21T01:02:22;4.43;;;2.25;;
56718;SDS011;42597;40.636;0.278;2024-02-21T01:04:48;3.88;;;1.75;;
56718;SDS011;42597;40.636;0.278;2024-02-21T01:07:13;5.18;;;2.47;;
56718;SDS011;42597;40.636;0.278;2024-02-21T01:09:39;4.38;;;2.35;;
56718;SDS011;42597;40.636;0.278;2024-02-21T01:12:05;4.55;;;2.53;;
56718;SDS011;42597;40.636;0.278;2024-02-21T01:14:30;4.70;;;2.33;;
56718;SDS011;42597;40.636;0.278;2024-02-21T01:16:56;4.25;;;2.05;;
56718;SDS011;42597;40.636;0.278;2024-02-21T01:19:22;4.35;;;1.77;;
56718;SDS011;42597;40.636;0.278;2024-02-21T01:21:48;6.72;;;2.30;;
56718;SDS011;42597;40.636;0.278;2024-02-21T01:24:13;4.15;;;1.92;;
56718;SDS011;42597;40.636;0.278;2024-02-21T01:26:40;4.57;;;1.50;;
56718;SDS011;42597;40.636;0.278;2024-02-21T01:29:05;5.45;;;2.00;;
56718;SDS011;42597;40.636;0.278;2024-02-21T01:31:31;4.38;;;1.70;;
56718;SDS011;42597;40.636;0.278;2024-02-21T01:33:56;5.00;;;2.35;;
56718;SDS011;42597;40.636;0.278;2024-02-21T01:36:23;4.25;;;1.95;;
56718;SDS011;42597;40.636;0.278;2024-02-21T01:38:48;3.30;;;1.58;;
56718;SDS011;42597;40.636;0.278;2024-02-21T01:41:14;5.30;;;2.05;;
56718;SDS011;42597;40.636;0.278;2024-02-21T01:43:41;2.75;;;1.50;;
56718;SDS011;42597;40.636;0.278;2024-02-21T01:46:07;3.78;;;1.70;;
56718;SDS011;42597;40.636;0.278;2024-02-21T01:48:33;4.60;;;1.75;;
56718;SDS011;42597;40.636;0.278;2024-02-21T01:50:59;6.78;;;1.58;;
56718;SDS011;42597;40.636;0.278;2024-02-21T01:53:29;3.35;;;1.70;;
56718;SDS011;42597;40.636;0.278;2024-02-21T01:55:58;2.78;;;1.20;;
56718;SDS011;42597;40.636;0.278;2024-02-21T01:58:24;4.65;;;1.67;;
56718;SDS011;42597;40.636;0.278;2024-02-21T02:00:50;3.80;;;1.95;;
56718;SDS011;42597;40.636;0.278;2024-02-21T02:03:16;5.60;;;1.98;;
56718;SDS011;42597;40.636;0.278;2024-02-21T02:05:51;3.75;;;1.80;;
56718;SDS011;42597;40.636;0.278;2024-02-21T02:08:17;4.88;;;2.67;;
56718;SDS011;42597;40.636;0.278;2024-02-21T02:10:44;2.22;;;1.40;;
56718;SDS011;42597;40.636;0.278;2024-02-21T02:13:13;5.00;;;1.80;;
56718;SDS011;42597;40.636;0.278;2024-02-21T02:18:05;2.88;;;1.80;;
56718;SDS011;42597;40.636;0.278;2024-02-21T02:20:31;3.28;;;1.60;;
56718;SDS011;42597;40.636;0.278;2024-02-21T02:22:57;3.40;;;1.92;;
56718;SDS011;42597;40.636;0.278;2024-02-21T02:25:32;4.43;;;2.30;;
56718;SDS011;42597;40.636;0.278;2024-02-21T02:27:57;5.28;;;1.83;;
56718;SDS011;42597;40.636;0.278;2024-02-21T02:30:23;3.80;;;1.85;;
56718;SDS011;42597;40.636;0.278;2024-02-21T02:32:48;3.13;;;1.80;;
56718;SDS011;42597;40.636;0.278;2024-02-21T02:35:14;3.35;;;1.45;;
56718;SDS011;42597;40.636;0.278;2024-02-21T02:37:39;4.93;;;1.80;;
56718;SDS011;42597;40.636;0.278;2024-02-21T02:40:06;3.67;;;1.70;;
56718;SDS011;42597;40.636;0.278;2024-02-21T02:42:32;3.95;;;1.63;;
56718;SDS011;42597;40.636;0.278;2024-02-21T02:44:58;4.72;;;1.80;;
56718;SDS011;42597;40.636;0.278;2024-02-21T02:47:23;2.88;;;1.45;;
56718;SDS011;42597;40.636;0.278;2024-02-21T02:49:49;5.75;;;1.60;;
56718;SDS011;42597;40.636;0.278;2024-02-21T02:52:16;2.65;;;1.55;;
56718;SDS011;42597;40.636;0.278;2024-02-21T02:54:43;4.85;;;2.13;;
56718;SDS011;42597;40.636;0.278;2024-02-21T02:57:09;9.95;;;4.65;;
56718;SDS011;42597;40.636;0.278;2024-02-21T02:59:34;11.70;;;5.30;;
56718;SDS011;42597;40.636;0.278;2024-02-21T03:02:00;6.57;;;3.33;;
56718;SDS011;42597;40.636;0.278;2024-02-21T03:04:26;15.05;;;7.63;;
56718;SDS011;42597;40.636;0.278;2024-02-21T03:06:51;5.57;;;2.75;;
56718;SDS011;42597;40.636;0.278;2024-02-21T03:09:17;5.40;;;2.53;;
56718;SDS011;42597;40.636;0.278;2024-02-21T03:11:42;11.25;;;5.88;;
56718;SDS011;42597;40.636;0.278;2024-02-21T03:14:09;7.95;;;3.55;;
56718;SDS011;42597;40.636;0.278;2024-02-21T03:16:35;4.13;;;2.47;;
56718;SDS011;42597;40.636;0.278;2024-02-21T03:19:01;6.10;;;2.42;;
56718;SDS011;42597;40.636;0.278;2024-02-21T03:21:27;5.70;;;2.58;;
56718;SDS011;42597;40.636;0.278;2024-02-21T03:23:52;6.28;;;3.28;;
56718;SDS011;42597;40.636;0.278;2024-02-21T03:26:18;4.22;;;2.10;;
56718;SDS011;42597;40.636;0.278;2024-02-21T03:28:44;5.50;;;2.40;;
56718;SDS011;42597;40.636;0.278;2024-02-21T03:31:13;9.43;;;4.13;;
56718;SDS011;42597;40.636;0.278;2024-02-21T03:33:42;5.30;;;2.45;;
56718;SDS011;42597;40.636;0.278;2024-02-21T03:36:13;4.90;;;1.55;;
56718;SDS011;42597;40.636;0.278;2024-02-21T03:38:39;3.13;;;1.30;;
56718;SDS011;42597;40.636;0.278;2024-02-21T03:41:05;3.75;;;1.40;;
56718;SDS011;42597;40.636;0.278;2024-02-21T03:43:30;6.82;;;3.17;;
56718;SDS011;42597;40.636;0.278;2024-02-21T03:45:56;5.05;;;2.40;;
56718;SDS011;42597;40.636;0.278;2024-02-21T03:48:22;2.40;;;1.23;;
56718;SDS011;42597;40.636;0.278;2024-02-21T03:50:47;3.33;;;1.40;;
56718;SDS011;42597;40.636;0.278;2024-02-21T03:53:13;4.45;;;2.15;;
56718;SDS011;42597;40.636;0.278;2024-02-21T03:55:38;5.95;;;1.73;;
56718;SDS011;42597;40.636;0.278;2024-02-21T03:58:04;5.85;;;2.30;;
56718;SDS011;42597;40.636;0.278;2024-02-21T04:00:29;7.75;;;2.65;;
56718;SDS011;42597;40.636;0.278;2024-02-21T04:02:55;5.07;;;2.42;;
56718;SDS011;42597;40.636;0.278;2024-02-21T04:05:21;4.63;;;2.28;;
56718;SDS011;42597;40.636;0.278;2024-02-21T04:07:46;5.80;;;3.25;;
56718;SDS011;42597;40.636;0.278;2024-02-21T04:10:12;4.95;;;2.25;;
56718;SDS011;42597;40.636;0.278;2024-02-21T04:12:38;4.93;;;1.40;;
56718;SDS011;42597;40.636;0.278;2024-02-21T04:15:04;4.65;;;1.73;;
56718;SDS011;42597;40.636;0.278;2024-02-21T04:17:30;4.18;;;2.42;;
56718;SDS011;42597;40.636;0.278;2024-02-21T04:20:01;4.03;;;2.17;;
56718;SDS011;42597;40.636;0.278;2024-02-21T04:22:33;3.63;;;1.80;;
56718;SDS011;42597;40.636;0.278;2024-02-21T04:25:00;6.20;;;2.03;;
56718;SDS011;42597;40.636;0.278;2024-02-21T04:27:26;4.75;;;2.28;;
56718;SDS011;42597;40.636;0.278;2024-02-21T04:29:52;4.18;;;1.45;;
56718;SDS011;42597;40.636;0.278;2024-02-21T04:32:18;6.38;;;2.50;;
56718;SDS011;42597;40.636;0.278;2024-02-21T04:34:43;2.92;;;1.58;;
56718;SDS011;42597;40.636;0.278;2024-02-21T04:37:09;5.18;;;1.60;;
56718;SDS011;42597;40.636;0.278;2024-02-21T04:39:35;6.55;;;1.70;;
56718;SDS011;42597;40.636;0.278;2024-02-21T04:42:00;5.03;;;1.85;;
56718;SDS011;42597;40.636;0.278;2024-02-21T04:44:26;3.50;;;2.00;;
56718;SDS011;42597;40.636;0.278;2024-02-21T04:46:52;2.58;;;1.35;;
56718;SDS011;42597;40.636;0.278;2024-02-21T04:49:17;2.60;;;1.48;;
56718;SDS011;42597;40.636;0.278;2024-02-21T04:51:43;3.38;;;1.63;;
56718;SDS011;42597;40.636;0.278;2024-02-21T04:54:08;5.75;;;1.55;;
56718;SDS011;42597;40.636;0.278;2024-02-21T04:56:34;3.60;;;1.65;;
56718;SDS011;42597;40.636;0.278;2024-02-21T04:58:59;2.72;;;1.40;;
56718;SDS011;42597;40.636;0.278;2024-02-21T05:01:25;3.22;;;1.50;;
56718;SDS011;42597;40.636;0.278;2024-02-21T05:03:51;3.30;;;1.65;;
56718;SDS011;42597;40.636;0.278;2024-02-21T05:06:16;29.35;;;13.38;;
56718;SDS011;42597;40.636;0.278;2024-02-21T05:08:42;4.93;;;1.63;;
56718;SDS011;42597;40.636;0.278;2024-02-21T05:11:07;4.63;;;1.75;;
56718;SDS011;42597;40.636;0.278;2024-02-21T05:13:33;4.85;;;2.05;;
56718;SDS011;42597;40.636;0.278;2024-02-21T05:15:58;3.50;;;1.45;;
56718;SDS011;42597;40.636;0.278;2024-02-21T05:18:26;3.05;;;1.23;;
56718;SDS011;42597;40.636;0.278;2024-02-21T05:20:53;12.57;;;2.67;;
56718;SDS011;42597;40.636;0.278;2024-02-21T05:23:18;3.35;;;1.27;;
56718;SDS011;42597;40.636;0.278;2024-02-21T05:25:44;4.55;;;1.98;;
56718;SDS011;42597;40.636;0.278;2024-02-21T05:28:09;22.88;;;10.65;;
56718;SDS011;42597;40.636;0.278;2024-02-21T05:30:35;4.55;;;2.38;;
56718;SDS011;42597;40.636;0.278;2024-02-21T05:33:07;3.15;;;1.80;;
56718;SDS011;42597;40.636;0.278;2024-02-21T05:35:33;23.00;;;10.45;;
56718;SDS011;42597;40.636;0.278;2024-02-21T05:37:59;7.82;;;3.28;;
56718;SDS011;42597;40.636;0.278;2024-02-21T05:40:25;20.33;;;8.77;;
56718;SDS011;42597;40.636;0.278;2024-02-21T05:42:51;3.22;;;1.60;;
56718;SDS011;42597;40.636;0.278;2024-02-21T05:45:17;10.65;;;4.97;;
56718;SDS011;42597;40.636;0.278;2024-02-21T05:47:43;8.00;;;3.13;;
56718;SDS011;42597;40.636;0.278;2024-02-21T05:50:09;11.07;;;4.18;;
56718;SDS011;42597;40.636;0.278;2024-02-21T05:52:35;4.45;;;2.28;;
56718;SDS011;42597;40.636;0.278;2024-02-21T05:55:00;50.92;;;24.15;;
56718;SDS011;42597;40.636;0.278;2024-02-21T05:57:26;4.70;;;2.00;;
56718;SDS011;42597;40.636;0.278;2024-02-21T05:59:51;7.22;;;2.58;;
56718;SDS011;42597;40.636;0.278;2024-02-21T06:02:17;9.30;;;4.05;;
56718;SDS011;42597;40.636;0.278;2024-02-21T06:04:42;13.70;;;7.75;;
56718;SDS011;42597;40.636;0.278;2024-02-21T06:07:09;16.75;;;7.72;;
56718;SDS011;42597;40.636;0.278;2024-02-21T06:09:35;6.10;;;2.40;;
56718;SDS011;42597;40.636;0.278;2024-02-21T06:12:00;6.25;;;3.10;;
56718;SDS011;42597;40.636;0.278;2024-02-21T06:14:26;14.30;;;6.70;;
56718;SDS011;42597;40.636;0.278;2024-02-21T06:16:51;5.10;;;2.40;;
56718;SDS011;42597;40.636;0.278;2024-02-21T06:19:17;6.97;;;3.03;;
56718;SDS011;42597;40.636;0.278;2024-02-21T06:21:42;6.10;;;2.33;;
56718;SDS011;42597;40.636;0.278;2024-02-21T06:24:08;5.85;;;2.35;;
56718;SDS011;42597;40.636;0.278;2024-02-21T06:26:33;9.50;;;4.68;;
56718;SDS011;42597;40.636;0.278;2024-02-21T06:28:59;4.63;;;2.30;;
56718;SDS011;42597;40.636;0.278;2024-02-21T06:31:25;7.32;;;2.83;;
56718;SDS011;42597;40.636;0.278;2024-02-21T06:33:52;7.72;;;2.42;;
56718;SDS011;42597;40.636;0.278;2024-02-21T06:36:17;7.45;;;3.75;;
56718;SDS011;42597;40.636;0.278;2024-02-21T06:38:43;6.55;;;2.40;;
56718;SDS011;42597;40.636;0.278;2024-02-21T06:41:18;4.43;;;2.03;;
56718;SDS011;42597;40.636;0.278;2024-02-21T06:43:44;4.13;;;1.85;;
56718;SDS011;42597;40.636;0.278;2024-02-21T06:46:11;6.05;;;2.58;;
56718;SDS011;42597;40.636;0.278;2024-02-21T06:48:38;5.35;;;2.13;;
56718;SDS011;42597;40.636;0.278;2024-02-21T06:51:04;6.95;;;3.05;;
56718;SDS011;42597;40.636;0.278;2024-02-21T06:53:29;7.00;;;3.67;;
56718;SDS011;42597;40.636;0.278;2024-02-21T06:55:55;7.13;;;3.47;;
56718;SDS011;42597;40.636;0.278;2024-02-21T06:58:21;5.38;;;2.55;;
56718;SDS011;42597;40.636;0.278;2024-02-21T07:00:46;5.78;;;2.50;;
56718;SDS011;42597;40.636;0.278;2024-02-21T07:03:12;7.13;;;3.53;;
56718;SDS011;42597;40.636;0.278;2024-02-21T07:05:37;6.15;;;2.72;;
56718;SDS011;42597;40.636;0.278;2024-02-21T07:08:03;6.30;;;2.85;;
56718;SDS011;42597;40.636;0.278;2024-02-21T07:10:29;8.13;;;3.65;;
56718;SDS011;42597;40.636;0.278;2024-02-21T07:12:54;7.00;;;3.67;;
56718;SDS011;42597;40.636;0.278;2024-02-21T07:15:20;7.18;;;3.42;;
56718;SDS011;42597;40.636;0.278;2024-02-21T07:17:46;12.57;;;7.53;;
56718;SDS011;42597;40.636;0.278;2024-02-21T07:20:11;9.00;;;3.50;;
56718;SDS011;42597;40.636;0.278;2024-02-21T07:22:37;8.65;;;3.40;;
56718;SDS011;42597;40.636;0.278;2024-02-21T07:25:03;7.82;;;3.33;;
56718;SDS011;42597;40.636;0.278;2024-02-21T07:27:29;11.95;;;3.75;;
56718;SDS011;42597;40.636;0.278;2024-02-21T07:29:56;8.55;;;3.83;;
56718;SDS011;42597;40.636;0.278;2024-02-21T07:32:22;13.35;;;6.75;;
56718;SDS011;42597;40.636;0.278;2024-02-21T07:34:47;13.82;;;7.35;;
56718;SDS011;42597;40.636;0.278;2024-02-21T07:37:13;7.72;;;3.97;;
56718;SDS011;42597;40.636;0.278;2024-02-21T07:39:39;8.02;;;4.10;;
56718;SDS011;42597;40.636;0.278;2024-02-21T07:42:04;7.95;;;4.20;;
56718;SDS011;42597;40.636;0.278;2024-02-21T07:44:30;9.10;;;4.75;;
56718;SDS011;42597;40.636;0.278;2024-02-21T07:46:57;13.35;;;4.97;;
56718;SDS011;42597;40.636;0.278;2024-02-21T07:49:23;5.65;;;2.90;;
56718;SDS011;42597;40.636;0.278;2024-02-21T07:51:49;9.73;;;3.92;;
56718;SDS011;42597;40.636;0.278;2024-02-21T07:54:14;9.40;;;4.28;;
56718;SDS011;42597;40.636;0.278;2024-02-21T07:56:40;13.02;;;3.88;;
56718;SDS011;42597;40.636;0.278;2024-02-21T07:59:05;8.70;;;4.03;;
56718;SDS011;42597;40.636;0.278;2024-02-21T08:01:31;8.43;;;3.88;;
56718;SDS011;42597;40.636;0.278;2024-02-21T08:03:56;13.52;;;3.88;;
56718;SDS011;42597;40.636;0.278;2024-02-21T08:06:24;5.32;;;3.00;;
56718;SDS011;42597;40.636;0.278;2024-02-21T08:08:49;7.85;;;3.75;;
56718;SDS011;42597;40.636;0.278;2024-02-21T08:11:15;7.68;;;4.05;;
56718;SDS011;42597;40.636;0.278;2024-02-21T08:13:40;10.50;;;3.92;;
56718;SDS011;42597;40.636;0.278;2024-02-21T08:16:06;7.50;;;3.85;;
56718;SDS011;42597;40.636;0.278;2024-02-21T08:18:31;6.47;;;2.92;;
56718;SDS011;42597;40.636;0.278;2024-02-21T08:21:01;8.18;;;3.35;;
56718;SDS011;42597;40.636;0.278;2024-02-21T08:23:27;6.32;;;3.35;;
56718;SDS011;42597;40.636;0.278;2024-02-21T08:25:52;5.63;;;3.20;;
56718;SDS011;42597;40.636;0.278;2024-02-21T08:28:18;9.00;;;3.70;;
56718;SDS011;42597;40.636;0.278;2024-02-21T08:30:43;7.78;;;3.80;;
56718;SDS011;42597;40.636;0.278;2024-02-21T08:33:12;7.22;;;3.28;;
56718;SDS011;42597;40.636;0.278;2024-02-21T08:35:39;7.35;;;3.30;;
56718;SDS011;42597;40.636;0.278;2024-02-21T08:38:05;7.10;;;3.05;;
56718;SDS011;42597;40.636;0.278;2024-02-21T08:40:31;5.00;;;2.38;;
56718;SDS011;42597;40.636;0.278;2024-02-21T08:42:56;9.65;;;4.20;;
56718;SDS011;42597;40.636;0.278;2024-02-21T08:45:22;7.28;;;3.75;;
56718;SDS011;42597;40.636;0.278;2024-02-21T08:47:47;8.93;;;4.60;;
56718;SDS011;42597;40.636;0.278;2024-02-21T08:50:13;7.57;;;3.40;;
56718;SDS011;42597;40.636;0.278;2024-02-21T08:52:38;10.07;;;4.43;;
56718;SDS011;42597;40.636;0.278;2024-02-21T08:55:04;6.35;;;3.83;;
56718;SDS011;42597;40.636;0.278;2024-02-21T08:57:30;7.95;;;3.70;;
56718;SDS011;42597;40.636;0.278;2024-02-21T09:00:02;15.50;;;5.30;;
56718;SDS011;42597;40.636;0.278;2024-02-21T09:02:34;7.70;;;3.40;;
56718;SDS011;42597;40.636;0.278;2024-02-21T09:05:09;5.20;;;3.03;;
56718;SDS011;42597;40.636;0.278;2024-02-21T09:07:34;7.88;;;3.10;;
56718;SDS011;42597;40.636;0.278;2024-02-21T09:10:00;7.25;;;3.80;;
56718;SDS011;42597;40.636;0.278;2024-02-21T09:12:26;7.95;;;3.05;;
56718;SDS011;42597;40.636;0.278;2024-02-21T09:14:52;8.02;;;3.13;;
56718;SDS011;42597;40.636;0.278;2024-02-21T09:17:17;8.15;;;3.40;;
56718;SDS011;42597;40.636;0.278;2024-02-21T09:19:44;8.95;;;3.63;;
56718;SDS011;42597;40.636;0.278;2024-02-21T09:22:09;6.68;;;3.33;;
56718;SDS011;42597;40.636;0.278;2024-02-21T09:24:35;6.43;;;3.08;;
56718;SDS011;42597;40.636;0.278;2024-02-21T09:27:00;6.22;;;3.22;;
56718;SDS011;42597;40.636;0.278;2024-02-21T09:29:26;16.38;;;8.82;;
56718;SDS011;42597;40.636;0.278;2024-02-21T09:31:51;19.33;;;11.05;;
56718;SDS011;42597;40.636;0.278;2024-02-21T09:34:17;10.98;;;6.15;;
56718;SDS011;42597;40.636;0.278;2024-02-21T09:36:43;11.35;;;5.32;;
56718;SDS011;42597;40.636;0.278;2024-02-21T09:39:09;11.35;;;7.32;;
56718;SDS011;42597;40.636;0.278;2024-02-21T09:41:39;13.57;;;8.20;;
56718;SDS011;42597;40.636;0.278;2024-02-21T09:44:10;6.68;;;4.47;;
56718;SDS011;42597;40.636;0.278;2024-02-21T09:49:30;7.03;;;3.67;;
56718;SDS011;42597;40.636;0.278;2024-02-21T09:51:57;10.02;;;5.10;;
56718;SDS011;42597;40.636;0.278;2024-02-21T09:54:27;4.43;;;2.50;;
56718;SDS011;42597;40.636;0.278;2024-02-21T09:56:55;6.65;;;3.85;;
56718;SDS011;42597;40.636;0.278;2024-02-21T09:59:20;10.23;;;5.40;;
56718;SDS011;42597;40.636;0.278;2024-02-21T10:01:47;5.90;;;3.17;;
56718;SDS011;42597;40.636;0.278;2024-02-21T10:04:13;6.75;;;3.10;;
56718;SDS011;42597;40.636;0.278;2024-02-21T10:06:38;5.40;;;2.92;;
56718;SDS011;42597;40.636;0.278;2024-02-21T10:09:07;8.10;;;3.83;;
56718;SDS011;42597;40.636;0.278;2024-02-21T10:11:33;6.80;;;3.95;;
56718;SDS011;42597;40.636;0.278;2024-02-21T10:14:05;5.97;;;3.17;;
56718;SDS011;42597;40.636;0.278;2024-02-21T10:16:31;6.20;;;3.88;;
56718;SDS011;42597;40.636;0.278;2024-02-21T10:18:57;6.28;;;2.97;;
56718;SDS011;42597;40.636;0.278;2024-02-21T10:21:22;6.47;;;3.33;;
56718;SDS011;42597;40.636;0.278;2024-02-21T10:23:48;5.90;;;3.03;;
56718;SDS011;42597;40.636;0.278;2024-02-21T10:26:15;7.05;;;3.00;;
56718;SDS011;42597;40.636;0.278;2024-02-21T10:28:42;5.10;;;2.70;;
56718;SDS011;42597;40.636;0.278;2024-02-21T10:31:10;4.30;;;2.75;;
56718;SDS011;42597;40.636;0.278;2024-02-21T10:33:36;6.70;;;3.40;;
56718;SDS011;42597;40.636;0.278;2024-02-21T10:36:09;7.68;;;2.83;;
56718;SDS011;42597;40.636;0.278;2024-02-21T10:38:36;5.75;;;2.58;;
56718;SDS011;42597;40.636;0.278;2024-02-21T10:41:03;5.63;;;2.83;;
56718;SDS011;42597;40.636;0.278;2024-02-21T10:43:41;5.70;;;3.05;;
56718;SDS011;42597;40.636;0.278;2024-02-21T10:46:09;10.18;;;4.03;;
56718;SDS011;42597;40.636;0.278;2024-02-21T10:48:43;8.98;;;3.75;;
56718;SDS011;42597;40.636;0.278;2024-02-21T10:51:16;10.20;;;4.65;;
56718;SDS011;42597;40.636;0.278;2024-02-21T10:53:53;11.52;;;6.07;;
56718;SDS011;42597;40.636;0.278;2024-02-21T10:56:30;14.65;;;4.70;;
56718;SDS011;42597;40.636;0.278;2024-02-21T10:58:59;8.60;;;4.55;;
56718;SDS011;42597;40.636;0.278;2024-02-21T11:01:26;7.57;;;3.58;;
56718;SDS011;42597;40.636;0.278;2024-02-21T11:03:54;7.15;;;4.65;;
56718;SDS011;42597;40.636;0.278;2024-02-21T11:06:21;7.88;;;4.03;;
56718;SDS011;42597;40.636;0.278;2024-02-21T11:08:58;6.70;;;4.45;;
56718;SDS011;42597;40.636;0.278;2024-02-21T11:11:25;7.50;;;4.00;;
56718;SDS011;42597;40.636;0.278;2024-02-21T11:13:51;7.32;;;4.22;;
56718;SDS011;42597;40.636;0.278;2024-02-21T11:16:22;5.82;;;3.55;;
56718;SDS011;42597;40.636;0.278;2024-02-21T11:18:48;5.65;;;2.97;;
56718;SDS011;42597;40.636;0.278;2024-02-21T11:21:14;9.27;;;3.88;;
56718;SDS011;42597;40.636;0.278;2024-02-21T11:23:40;7.20;;;4.30;;
56718;SDS011;42597;40.636;0.278;2024-02-21T11:26:09;10.10;;;3.88;;
56718;SDS011;42597;40.636;0.278;2024-02-21T11:28:36;7.18;;;3.67;;
56718;SDS011;42597;40.636;0.278;2024-02-21T11:31:12;9.48;;;4.63;;
56718;SDS011;42597;40.636;0.278;2024-02-21T11:33:39;8.38;;;6.20;;
56718;SDS011;42597;40.636;0.278;2024-02-21T11:36:07;9.85;;;5.18;;
56718;SDS011;42597;40.636;0.278;2024-02-21T11:38:35;9.90;;;4.28;;
56718;SDS011;42597;40.636;0.278;2024-02-21T11:41:01;7.72;;;4.43;;
56718;SDS011;42597;40.636;0.278;2024-02-21T11:43:27;11.73;;;6.10;;
56718;SDS011;42597;40.636;0.278;2024-02-21T11:46:02;13.20;;;5.32;;
56718;SDS011;42597;40.636;0.278;2024-02-21T11:48:29;7.95;;;5.20;;
56718;SDS011;42597;40.636;0.278;2024-02-21T11:50:56;7.93;;;4.72;;
56718;SDS011;42597;40.636;0.278;2024-02-21T11:53:22;9.60;;;4.97;;
56718;SDS011;42597;40.636;0.278;2024-02-21T11:55:49;7.63;;;4.25;;
56718;SDS011;42597;40.636;0.278;2024-02-21T11:58:15;8.18;;;4.57;;
56718;SDS011;42597;40.636;0.278;2024-02-21T12:00:41;8.10;;;4.78;;
56718;SDS011;42597;40.636;0.278;2024-02-21T12:03:07;9.18;;;5.70;;
56718;SDS011;42597;40.636;0.278;2024-02-21T12:05:33;9.90;;;5.63;;
56718;SDS011;42597;40.636;0.278;2024-02-21T12:07:59;7.70;;;5.15;;
56718;SDS011;42597;40.636;0.278;2024-02-21T12:10:25;10.43;;;5.25;;
56718;SDS011;42597;40.636;0.278;2024-02-21T12:13:04;9.30;;;5.35;;
56718;SDS011;42597;40.636;0.278;2024-02-21T12:15:33;7.28;;;4.18;;
56718;SDS011;42597;40.636;0.278;2024-02-21T12:17:59;11.77;;;6.07;;
56718;SDS011;42597;40.636;0.278;2024-02-21T12:20:25;8.05;;;4.65;;
56718;SDS011;42597;40.636;0.278;2024-02-21T12:22:51;9.23;;;5.43;;
56718;SDS011;42597;40.636;0.278;2024-02-21T12:25:19;9.65;;;3.30;;
56718;SDS011;42597;40.636;0.278;2024-02-21T12:27:51;6.45;;;4.07;;
56718;SDS011;42597;40.636;0.278;2024-02-21T12:30:17;9.63;;;5.43;;
56718;SDS011;42597;40.636;0.278;2024-02-21T12:32:43;14.13;;;6.45;;
56718;SDS011;42597;40.636;0.278;2024-02-21T12:35:08;10.13;;;5.65;;
56718;SDS011;42597;40.636;0.278;2024-02-21T12:37:34;7.72;;;4.63;;
56718;SDS011;42597;40.636;0.278;2024-02-21T12:40:00;12.07;;;4.63;;
56718;SDS011;42597;40.636;0.278;2024-02-21T12:42:26;10.10;;;7.00;;
56718;SDS011;42597;40.636;0.278;2024-02-21T12:44:52;9.13;;;5.63;;
56718;SDS011;42597;40.636;0.278;2024-02-21T12:47:18;11.07;;;7.40;;
56718;SDS011;42597;40.636;0.278;2024-02-21T12:49:45;12.05;;;8.45;;
56718;SDS011;42597;40.636;0.278;2024-02-21T12:52:10;13.95;;;9.02;;
56718;SDS011;42597;40.636;0.278;2024-02-21T12:54:36;20.58;;;9.90;;
56718;SDS011;42597;40.636;0.278;2024-02-21T12:57:02;20.88;;;9.95;;
56718;SDS011;42597;40.636;0.278;2024-02-21T12:59:28;11.18;;;9.07;;
56718;SDS011;42597;40.636;0.278;2024-02-21T13:01:54;17.05;;;9.88;;
56718;SDS011;42597;40.636;0.278;2024-02-21T13:04:20;14.32;;;10.75;;
56718;SDS011;42597;40.636;0.278;2024-02-21T13:06:47;16.75;;;11.45;;
56718;SDS011;42597;40.636;0.278;2024-02-21T13:09:14;13.60;;;9.88;;
56718;SDS011;42597;40.636;0.278;2024-02-21T13:11:39;13.90;;;7.88;;
56718;SDS011;42597;40.636;0.278;2024-02-21T13:14:06;10.00;;;5.78;;
56718;SDS011;42597;40.636;0.278;2024-02-21T13:16:32;16.35;;;11.32;;
56718;SDS011;42597;40.636;0.278;2024-02-21T13:19:04;11.13;;;6.63;;
56718;SDS011;42597;40.636;0.278;2024-02-21T13:21:30;12.18;;;10.25;;
56718;SDS011;42597;40.636;0.278;2024-02-21T13:23:55;13.27;;;10.65;;
56718;SDS011;42597;40.636;0.278;2024-02-21T13:26:22;13.82;;;10.68;;
56718;SDS011;42597;40.636;0.278;2024-02-21T13:28:47;17.08;;;12.20;;
56718;SDS011;42597;40.636;0.278;2024-02-21T13:31:14;18.63;;;12.68;;
56718;SDS011;42597;40.636;0.278;2024-02-21T13:33:41;16.23;;;11.60;;
56718;SDS011;42597;40.636;0.278;2024-02-21T13:36:09;14.68;;;12.00;;
56718;SDS011;42597;40.636;0.278;2024-02-21T13:38:35;18.48;;;11.93;;
56718;SDS011;42597;40.636;0.278;2024-02-21T13:41:00;14.38;;;11.40;;
56718;SDS011;42597;40.636;0.278;2024-02-21T13:43:26;14.73;;;12.27;;
56718;SDS011;42597;40.636;0.278;2024-02-21T13:45:58;17.10;;;10.68;;
56718;SDS011;42597;40.636;0.278;2024-02-21T13:48:25;16.27;;;12.63;;
56718;SDS011;42597;40.636;0.278;2024-02-21T13:50:52;17.95;;;10.75;;
56718;SDS011;42597;40.636;0.278;2024-02-21T13:53:17;11.93;;;7.90;;
56718;SDS011;42597;40.636;0.278;2024-02-21T13:55:46;12.73;;;8.63;;
56718;SDS011;42597;40.636;0.278;2024-02-21T13:58:12;15.80;;;12.98;;
56718;SDS011;42597;40.636;0.278;2024-02-21T14:00:38;9.57;;;4.97;;
56718;SDS011;42597;40.636;0.278;2024-02-21T14:03:03;18.48;;;12.70;;
56718;SDS011;42597;40.636;0.278;2024-02-21T14:05:29;13.85;;;8.82;;
56718;SDS011;42597;40.636;0.278;2024-02-21T14:07:55;16.70;;;11.93;;
56718;SDS011;42597;40.636;0.278;2024-02-21T14:10:21;16.63;;;8.88;;
56718;SDS011;42597;40.636;0.278;2024-02-21T14:12:47;12.10;;;8.50;;
56718;SDS011;42597;40.636;0.278;2024-02-21T14:15:15;11.93;;;5.80;;
56718;SDS011;42597;40.636;0.278;2024-02-21T14:17:44;19.00;;;12.70;;
56718;SDS011;42597;40.636;0.278;2024-02-21T14:20:09;16.00;;;11.07;;
56718;SDS011;42597;40.636;0.278;2024-02-21T14:22:35;8.80;;;5.30;;
56718;SDS011;42597;40.636;0.278;2024-02-21T14:25:04;16.50;;;11.15;;
56718;SDS011;42597;40.636;0.278;2024-02-21T14:27:30;16.73;;;12.48;;
56718;SDS011;42597;40.636;0.278;2024-02-21T14:29:56;17.23;;;12.50;;
56718;SDS011;42597;40.636;0.278;2024-02-21T14:32:22;14.07;;;10.65;;
56718;SDS011;42597;40.636;0.278;2024-02-21T14:34:47;23.35;;;11.50;;
56718;SDS011;42597;40.636;0.278;2024-02-21T14:37:14;15.63;;;12.57;;
56718;SDS011;42597;40.636;0.278;2024-02-21T14:39:40;17.02;;;11.32;;
56718;SDS011;42597;40.636;0.278;2024-02-21T14:42:06;13.95;;;12.02;;
56718;SDS011;42597;40.636;0.278;2024-02-21T14:44:34;20.55;;;12.75;;